createdAt,value
2019-03-25T00:00:38.709Z,1008.25
2019-03-25T00:01:38.724Z,1008.20
2019-03-25T00:02:38.693Z,1008.23
2019-03-25T00:03:38.709Z,1008.18
2019-03-25T00:04:38.675Z,1008.15
2019-03-25T00:05:38.681Z,1008.13
2019-03-25T00:06:38.651Z,1008.10
2019-03-25T00:07:38.648Z,1008.08
2019-03-25T00:08:38.626Z,1008.07
2019-03-25T00:09:38.638Z,1008.08
2019-03-25T00:10:38.629Z,1008.05
2019-03-25T00:11:38.630Z,1008.04
2019-03-25T00:12:38.644Z,1008.10
2019-03-25T00:13:38.587Z,1008.04
2019-03-25T00:14:38.573Z,1008.05
2019-03-25T00:15:38.553Z,1008.02
2019-03-25T00:16:38.555Z,1008.02
2019-03-25T00:17:38.526Z,1007.96
2019-03-25T00:18:38.604Z,1008.00
2019-03-25T00:19:38.507Z,1007.97
2019-03-25T00:20:38.509Z,1008.02
2019-03-25T00:21:38.492Z,1007.99
2019-03-25T00:22:38.480Z,1007.98
2019-03-25T00:23:38.480Z,1007.98
2019-03-25T00:24:39.267Z,1007.95
2019-03-25T00:25:38.452Z,1007.93
2019-03-25T00:26:38.436Z,1007.92
2019-03-25T00:27:38.430Z,1007.94
2019-03-25T00:28:38.436Z,1007.96
2019-03-25T00:29:38.399Z,1007.92
2019-03-25T00:30:38.427Z,1007.87
2019-03-25T00:31:38.385Z,1007.85
2019-03-25T00:32:38.368Z,1007.85
2019-03-25T00:33:38.378Z,1007.82
2019-03-25T00:34:38.380Z,1007.83
2019-03-25T00:35:38.340Z,1007.81
2019-03-25T00:36:38.341Z,1007.87
2019-03-25T00:37:38.350Z,1007.85
2019-03-25T00:38:38.307Z,1007.85
2019-03-25T00:39:38.315Z,1007.89
2019-03-25T00:40:38.295Z,1007.89
2019-03-25T00:41:38.285Z,1007.76
2019-03-25T00:42:38.271Z,1007.80
2019-03-25T00:43:38.282Z,1007.76
2019-03-25T00:44:38.277Z,1007.74
2019-03-25T00:45:38.253Z,1007.75
2019-03-25T00:46:38.240Z,1007.74
2019-03-25T00:47:38.211Z,1007.72
2019-03-25T00:48:38.204Z,1007.71
2019-03-25T00:49:38.191Z,1007.67
2019-03-25T00:50:38.211Z,1007.65
2019-03-25T00:51:38.225Z,1007.58
2019-03-25T00:52:38.159Z,1007.62
2019-03-25T00:53:38.154Z,1007.57
2019-03-25T00:54:49.376Z,1007.62
2019-03-25T00:55:39.133Z,1007.57
2019-03-25T00:56:38.171Z,1007.59
2019-03-25T00:57:38.121Z,1007.57
2019-03-25T00:58:38.098Z,1007.55
2019-03-25T00:59:38.085Z,1007.56
2019-03-25T01:00:38.076Z,1007.59
2019-03-25T01:01:38.059Z,1007.57
2019-03-25T01:02:38.109Z,1007.58
2019-03-25T01:03:38.069Z,1007.63
2019-03-25T01:04:38.028Z,1007.60
2019-03-25T01:05:38.045Z,1007.57
2019-03-25T01:06:38.011Z,1007.54
2019-03-25T01:07:38.005Z,1007.50
2019-03-25T01:08:38.005Z,1007.54
2019-03-25T01:09:37.987Z,1007.51
2019-03-25T01:10:37.974Z,1007.51
2019-03-25T01:11:48.584Z,1007.47
2019-03-25T01:12:38.948Z,1007.44
2019-03-25T01:13:37.958Z,1007.46
2019-03-25T01:14:37.945Z,1007.43
2019-03-25T01:15:37.917Z,1007.40
2019-03-25T01:16:37.899Z,1007.42
2019-03-25T01:17:37.913Z,1007.40
2019-03-25T01:18:37.907Z,1007.37
2019-03-25T01:19:37.885Z,1007.37
2019-03-25T01:20:37.883Z,1007.33
2019-03-25T01:21:37.847Z,1007.35
2019-03-25T01:22:37.847Z,1007.29
2019-03-25T01:23:37.829Z,1007.29
2019-03-25T01:24:37.965Z,1007.30
2019-03-25T01:25:37.870Z,1007.26
2019-03-25T01:26:37.798Z,1007.22
2019-03-25T01:27:37.792Z,1007.19
2019-03-25T01:28:37.780Z,1007.20
2019-03-25T01:29:37.761Z,1007.26
2019-03-25T01:30:37.777Z,1007.23
2019-03-25T01:31:37.763Z,1007.18
2019-03-25T01:32:37.749Z,1007.17
2019-03-25T01:33:37.781Z,1007.20
2019-03-25T01:34:37.711Z,1007.19
2019-03-25T01:35:37.713Z,1007.19
2019-03-25T01:36:37.686Z,1007.13
2019-03-25T01:37:37.693Z,1007.16
2019-03-25T01:38:37.669Z,1007.09
2019-03-25T01:39:37.679Z,1007.11
2019-03-25T01:40:37.675Z,1007.07
2019-03-25T01:41:37.649Z,1007.10
2019-03-25T01:42:37.643Z,1007.07
2019-03-25T01:43:37.627Z,1007.04
2019-03-25T01:44:37.609Z,1007.10
2019-03-25T01:45:37.652Z,1007.05
2019-03-25T01:46:37.582Z,1007.05
2019-03-25T01:47:37.639Z,1006.99
2019-03-25T01:48:37.556Z,1007.00
2019-03-25T01:49:37.556Z,1006.97
2019-03-25T01:50:37.565Z,1006.93
2019-03-25T01:51:37.528Z,1006.94
2019-03-25T01:52:37.538Z,1006.96
2019-03-25T01:53:37.503Z,1006.96
2019-03-25T01:54:37.501Z,1006.95
2019-03-25T01:55:37.517Z,1006.88
2019-03-25T01:56:37.485Z,1006.94
2019-03-25T01:57:37.484Z,1006.90
2019-03-25T01:58:37.494Z,1006.88
2019-03-25T01:59:37.479Z,1006.87
2019-03-25T02:00:37.437Z,1006.81
2019-03-25T02:01:37.438Z,1006.81
2019-03-25T02:02:37.467Z,1006.78
2019-03-25T02:03:37.452Z,1006.75
2019-03-25T02:04:37.398Z,1006.75
2019-03-25T02:05:37.397Z,1006.77
2019-03-25T02:06:37.387Z,1006.72
2019-03-25T02:07:37.380Z,1006.73
2019-03-25T02:08:37.345Z,1006.74
2019-03-25T02:09:37.339Z,1006.70
2019-03-25T02:10:37.365Z,1006.70
2019-03-25T02:11:37.316Z,1006.64
2019-03-25T02:12:37.331Z,1006.66
2019-03-25T02:13:37.319Z,1006.70
2019-03-25T02:14:37.280Z,1006.62
2019-03-25T02:15:37.290Z,1006.63
2019-03-25T02:16:37.261Z,1006.62
2019-03-25T02:17:37.256Z,1006.54
2019-03-25T02:18:37.263Z,1006.57
2019-03-25T02:19:37.256Z,1006.56
2019-03-25T02:20:37.274Z,1006.54
2019-03-25T02:21:37.225Z,1006.53
2019-03-25T02:22:37.230Z,1006.56
2019-03-25T02:23:37.201Z,1006.55
2019-03-25T02:24:37.185Z,1006.60
2019-03-25T02:25:37.159Z,1006.51
2019-03-25T02:26:37.166Z,1006.48
2019-03-25T02:27:37.154Z,1006.46
2019-03-25T02:28:37.138Z,1006.39
2019-03-25T02:29:37.127Z,1006.43
2019-03-25T02:30:37.115Z,1006.40
2019-03-25T02:31:37.104Z,1006.44
2019-03-25T02:32:37.122Z,1006.36
2019-03-25T02:33:37.085Z,1006.37
2019-03-25T02:34:37.068Z,1006.31
2019-03-25T02:35:37.063Z,1006.35
2019-03-25T02:36:37.055Z,1006.38
2019-03-25T02:37:37.041Z,1006.33
2019-03-25T02:38:37.051Z,1006.27
2019-03-25T02:39:37.028Z,1006.24
2019-03-25T02:40:37.000Z,1006.23
2019-03-25T02:41:37.001Z,1006.23
2019-03-25T02:42:37.007Z,1006.20
2019-03-25T02:43:36.974Z,1006.22
2019-03-25T02:44:36.978Z,1006.15
2019-03-25T02:45:36.962Z,1006.17
2019-03-25T02:46:36.987Z,1006.11
2019-03-25T02:47:36.963Z,1006.13
2019-03-25T02:48:36.935Z,1006.07
2019-03-25T02:49:36.919Z,1006.06
2019-03-25T02:50:36.900Z,1006.04
2019-03-25T02:51:36.890Z,1006.03
2019-03-25T02:52:36.939Z,1006.13
2019-03-25T02:53:36.968Z,1006.07
2019-03-25T02:54:36.895Z,1006.08
2019-03-25T02:55:42.010Z,1006.08
2019-03-25T02:56:37.896Z,1006.06
2019-03-25T02:57:36.893Z,1006.03
2019-03-25T02:58:36.848Z,1006.03
2019-03-25T02:59:36.855Z,1006.02
2019-03-25T03:00:36.827Z,1005.99
2019-03-25T03:01:36.804Z,1006.03
2019-03-25T03:02:36.814Z,1006.02
2019-03-25T03:03:36.759Z,1005.95
2019-03-25T03:04:36.766Z,1005.99
2019-03-25T03:05:36.760Z,1005.97
2019-03-25T03:06:36.761Z,1005.92
2019-03-25T03:07:36.775Z,1005.92
2019-03-25T03:08:36.731Z,1005.88
2019-03-25T03:09:36.718Z,1005.94
2019-03-25T03:10:36.706Z,1005.87
2019-03-25T03:11:36.700Z,1005.87
2019-03-25T03:12:36.668Z,1005.81
2019-03-25T03:13:36.659Z,1005.89
2019-03-25T03:14:36.660Z,1005.85
2019-03-25T03:15:36.651Z,1005.79
2019-03-25T03:16:36.694Z,1005.80
2019-03-25T03:17:36.714Z,1005.79
2019-03-25T03:18:36.615Z,1005.76
2019-03-25T03:19:36.627Z,1005.73
2019-03-25T03:20:36.582Z,1005.76
2019-03-25T03:21:36.613Z,1005.68
2019-03-25T03:22:36.564Z,1005.67
2019-03-25T03:23:36.542Z,1005.65
2019-03-25T03:24:36.542Z,1005.66
2019-03-25T03:25:36.537Z,1005.65
2019-03-25T03:26:36.576Z,1005.56
2019-03-25T03:27:36.506Z,1005.56
2019-03-25T03:28:36.513Z,1005.58
2019-03-25T03:29:36.484Z,1005.55
2019-03-25T03:30:36.520Z,1005.55
2019-03-25T03:31:36.492Z,1005.56
2019-03-25T03:32:36.524Z,1005.57
2019-03-25T03:33:36.457Z,1005.51
2019-03-25T03:34:36.426Z,1005.52
2019-03-25T03:35:36.415Z,1005.57
2019-03-25T03:36:36.405Z,1005.51
2019-03-25T03:37:36.402Z,1005.50
2019-03-25T03:38:36.408Z,1005.46
2019-03-25T03:39:36.371Z,1005.48
2019-03-25T03:40:36.373Z,1005.49
2019-03-25T03:41:36.343Z,1005.47
2019-03-25T03:42:36.336Z,1005.47
2019-03-25T03:43:36.353Z,1005.42
2019-03-25T03:44:36.347Z,1005.38
2019-03-25T03:45:36.332Z,1005.37
2019-03-25T03:46:36.346Z,1005.42
2019-03-25T03:47:36.336Z,1005.42
2019-03-25T03:48:36.307Z,1005.36
2019-03-25T03:49:36.262Z,1005.40
2019-03-25T03:50:36.265Z,1005.36
2019-03-25T03:51:36.253Z,1005.29
2019-03-25T03:52:36.244Z,1005.34
2019-03-25T03:53:36.260Z,1005.26
2019-03-25T03:54:36.211Z,1005.27
2019-03-25T03:55:36.259Z,1005.24
2019-03-25T03:56:36.199Z,1005.22
2019-03-25T03:57:36.202Z,1005.22
2019-03-25T03:58:36.207Z,1005.16
2019-03-25T03:59:36.170Z,1005.23
2019-03-25T04:00:36.150Z,1005.17
2019-03-25T04:01:36.136Z,1005.12
2019-03-25T04:02:36.142Z,1005.13
2019-03-25T04:03:36.127Z,1005.15
2019-03-25T04:04:36.132Z,1005.13
2019-03-25T04:05:36.109Z,1005.12
2019-03-25T04:06:36.080Z,1005.12
2019-03-25T04:07:36.070Z,1005.10
2019-03-25T04:08:36.076Z,1005.13
2019-03-25T04:09:36.065Z,1005.12
2019-03-25T04:10:36.042Z,1005.18
2019-03-25T04:11:36.032Z,1005.15
2019-03-25T04:12:36.016Z,1005.12
2019-03-25T04:13:36.022Z,1005.11
2019-03-25T04:14:36.013Z,1005.14
2019-03-25T04:15:36.044Z,1005.14
2019-03-25T04:16:35.988Z,1005.11
2019-03-25T04:17:35.961Z,1005.06
2019-03-25T04:18:35.951Z,1005.06
2019-03-25T04:19:35.955Z,1005.11
2019-03-25T04:20:35.929Z,1005.12
2019-03-25T04:21:35.927Z,1005.13
2019-03-25T04:22:35.932Z,1005.17
2019-03-25T04:23:35.920Z,1005.11
2019-03-25T04:24:35.957Z,1005.17
2019-03-25T04:25:35.902Z,1005.07
2019-03-25T04:26:35.865Z,1005.23
2019-03-25T04:27:35.887Z,1005.15
2019-03-25T04:28:35.892Z,1005.15
2019-03-25T04:29:35.835Z,1005.19
2019-03-25T04:30:35.830Z,1005.15
2019-03-25T04:31:35.821Z,1005.17
2019-03-25T04:32:35.823Z,1005.13
2019-03-25T04:33:35.799Z,1005.15
2019-03-25T04:34:35.868Z,1005.13
2019-03-25T04:35:35.779Z,1005.10
2019-03-25T04:36:35.768Z,1005.11
2019-03-25T04:37:35.759Z,1005.10
2019-03-25T04:38:35.749Z,1005.05
2019-03-25T04:39:35.750Z,1005.08
2019-03-25T04:40:35.724Z,1005.10
2019-03-25T04:41:35.758Z,1005.00
2019-03-25T04:42:35.702Z,1005.02
2019-03-25T04:43:35.783Z,1004.95
2019-03-25T04:44:35.665Z,1004.96
2019-03-25T04:45:35.675Z,1004.93
2019-03-25T04:46:35.645Z,1004.87
2019-03-25T04:47:35.675Z,1004.94
2019-03-25T04:48:35.667Z,1004.85
2019-03-25T04:49:35.609Z,1004.86
2019-03-25T04:50:35.600Z,1004.82
2019-03-25T04:51:35.619Z,1004.84
2019-03-25T04:52:35.579Z,1004.81
2019-03-25T04:53:35.613Z,1004.85
2019-03-25T04:54:35.570Z,1004.84
2019-03-25T04:55:35.564Z,1004.91
2019-03-25T04:56:39.793Z,1004.90
2019-03-25T04:57:35.525Z,1004.97
2019-03-25T04:58:35.518Z,1005.01
2019-03-25T04:59:35.544Z,1005.01
2019-03-25T05:00:35.497Z,1005.01
2019-03-25T05:01:35.513Z,1005.02
2019-03-25T05:02:35.506Z,1005.01
2019-03-25T05:03:35.458Z,1005.00
2019-03-25T05:04:35.476Z,1005.03
2019-03-25T05:05:36.201Z,1005.03
2019-03-25T05:06:35.431Z,1005.00
2019-03-25T05:07:35.439Z,1005.00
2019-03-25T05:08:35.417Z,1004.93
2019-03-25T05:09:35.415Z,1004.97
2019-03-25T05:10:35.406Z,1005.00
2019-03-25T05:11:35.394Z,1005.03
2019-03-25T05:12:35.371Z,1005.04
2019-03-25T05:13:35.394Z,1004.93
2019-03-25T05:14:35.401Z,1004.93
2019-03-25T05:15:35.330Z,1004.90
2019-03-25T05:16:35.321Z,1004.92
2019-03-25T05:17:35.312Z,1004.95
2019-03-25T05:18:35.303Z,1004.94
2019-03-25T05:19:35.311Z,1004.90
2019-03-25T05:20:35.324Z,1004.89
2019-03-25T05:21:35.261Z,1004.96
2019-03-25T05:22:35.275Z,1004.94
2019-03-25T05:23:35.244Z,1004.89
2019-03-25T05:24:35.244Z,1004.92
2019-03-25T05:25:35.237Z,1004.92
2019-03-25T05:26:35.221Z,1004.85
2019-03-25T05:27:35.247Z,1004.83
2019-03-25T05:28:35.202Z,1004.91
2019-03-25T05:29:35.196Z,1004.86
2019-03-25T05:30:35.194Z,1004.84
2019-03-25T05:31:35.177Z,1004.93
2019-03-25T05:32:35.168Z,1004.87
2019-03-25T05:33:35.180Z,1004.89
2019-03-25T05:34:35.125Z,1004.87
2019-03-25T05:35:35.133Z,1004.92
2019-03-25T05:36:35.138Z,1004.96
2019-03-25T05:37:35.194Z,1005.05
2019-03-25T05:38:35.090Z,1004.89
2019-03-25T05:39:35.074Z,1005.08
2019-03-25T05:40:35.103Z,1004.98
2019-03-25T05:41:35.053Z,1005.07
2019-03-25T05:42:35.041Z,1004.97
2019-03-25T05:43:35.043Z,1005.07
2019-03-25T05:44:35.019Z,1004.89
2019-03-25T05:45:35.035Z,1005.00
2019-03-25T05:46:35.008Z,1004.99
2019-03-25T05:47:34.998Z,1005.01
2019-03-25T05:48:35.009Z,1005.07
2019-03-25T05:49:34.969Z,1005.00
2019-03-25T05:50:34.985Z,1004.95
2019-03-25T05:51:34.987Z,1004.88
2019-03-25T05:52:34.980Z,1005.07
2019-03-25T05:53:34.937Z,1004.97
2019-03-25T05:54:34.922Z,1005.03
2019-03-25T05:55:34.975Z,1004.96
2019-03-25T05:56:34.891Z,1005.03
2019-03-25T05:57:34.897Z,1005.10
2019-03-25T05:58:34.877Z,1005.40
2019-03-25T05:59:34.915Z,1005.55
2019-03-25T06:00:34.900Z,1005.51
2019-03-25T06:01:34.921Z,1005.59
2019-03-25T06:02:34.845Z,1005.48
2019-03-25T06:03:34.837Z,1005.36
2019-03-25T06:04:34.822Z,1005.38
2019-03-25T06:05:34.810Z,1005.38
2019-03-25T06:06:34.861Z,1005.38
2019-03-25T06:07:34.792Z,1005.38
2019-03-25T06:08:34.763Z,1005.33
2019-03-25T06:09:34.773Z,1005.40
2019-03-25T06:10:34.821Z,1005.33
2019-03-25T06:11:34.752Z,1005.34
2019-03-25T06:12:34.774Z,1005.41
2019-03-25T06:13:34.766Z,1005.39
2019-03-25T06:14:34.746Z,1005.41
2019-03-25T06:15:34.689Z,1005.45
2019-03-25T06:16:34.684Z,1005.40
2019-03-25T06:17:34.699Z,1005.32
2019-03-25T06:18:34.666Z,1005.40
2019-03-25T06:19:34.658Z,1005.46
2019-03-25T06:20:34.629Z,1005.39
2019-03-25T06:21:34.626Z,1005.50
2019-03-25T06:22:34.640Z,1005.48
2019-03-25T06:23:34.648Z,1005.58
2019-03-25T06:24:34.590Z,1005.54
2019-03-25T06:25:34.573Z,1005.44
2019-03-25T06:26:34.567Z,1005.50
2019-03-25T06:27:34.557Z,1005.54
2019-03-25T06:28:34.574Z,1005.53
2019-03-25T06:29:34.544Z,1005.47
2019-03-25T06:30:34.533Z,1005.53
2019-03-25T06:31:34.512Z,1005.52
2019-03-25T06:32:34.512Z,1005.44
2019-03-25T06:33:34.496Z,1005.54
2019-03-25T06:34:34.478Z,1005.55
2019-03-25T06:35:34.476Z,1005.61
2019-03-25T06:36:34.487Z,1005.50
2019-03-25T06:37:34.458Z,1005.63
2019-03-25T06:38:34.445Z,1005.65
2019-03-25T06:39:34.476Z,1005.71
2019-03-25T06:40:34.433Z,1005.65
2019-03-25T06:41:34.411Z,1005.67
2019-03-25T06:42:34.407Z,1005.62
2019-03-25T06:43:34.390Z,1005.73
2019-03-25T06:44:34.401Z,1005.76
2019-03-25T06:45:34.372Z,1005.72
2019-03-25T06:46:34.428Z,1005.80
2019-03-25T06:47:34.375Z,1005.75
2019-03-25T06:48:34.340Z,1005.75
2019-03-25T06:49:34.365Z,1005.80
2019-03-25T06:50:34.329Z,1005.81
2019-03-25T06:51:34.312Z,1005.83
2019-03-25T06:52:34.303Z,1005.89
2019-03-25T06:53:34.306Z,1005.87
2019-03-25T06:54:34.276Z,1005.92
2019-03-25T06:55:34.290Z,1005.93
2019-03-25T06:56:34.384Z,1005.92
2019-03-25T06:57:34.231Z,1006.02
2019-03-25T06:58:34.222Z,1006.02
2019-03-25T06:59:34.219Z,1006.03
2019-03-25T07:00:34.218Z,1006.02
2019-03-25T07:01:34.220Z,1005.97
2019-03-25T07:02:34.185Z,1005.99
2019-03-25T07:03:34.204Z,1005.98
2019-03-25T07:04:34.157Z,1005.98
2019-03-25T07:05:34.158Z,1005.99
2019-03-25T07:06:34.180Z,1005.97
2019-03-25T07:07:34.120Z,1005.99
2019-03-25T07:08:34.113Z,1005.96
2019-03-25T07:09:34.123Z,1006.07
2019-03-25T07:10:34.138Z,1006.03
2019-03-25T07:11:34.087Z,1006.04
2019-03-25T07:12:34.063Z,1006.10
2019-03-25T07:13:34.060Z,1006.01
2019-03-25T07:14:34.054Z,1006.04
2019-03-25T07:15:34.072Z,1006.02
2019-03-25T07:16:34.258Z,1006.06
2019-03-25T07:17:34.047Z,1006.08
2019-03-25T07:18:34.031Z,1006.08
2019-03-25T07:19:34.007Z,1006.10
2019-03-25T07:20:34.006Z,1006.09
2019-03-25T07:21:34.029Z,1006.06
2019-03-25T07:22:34.018Z,1006.15
2019-03-25T07:23:33.985Z,1006.13
2019-03-25T07:24:34.038Z,1006.14
2019-03-25T07:25:33.965Z,1006.19
2019-03-25T07:26:33.951Z,1006.12
2019-03-25T07:27:36.962Z,1006.27
2019-03-25T07:28:33.900Z,1006.08
2019-03-25T07:29:33.893Z,1006.16
2019-03-25T07:30:33.870Z,1006.15
2019-03-25T07:31:33.861Z,1006.23
2019-03-25T07:32:33.867Z,1006.16
2019-03-25T07:33:33.864Z,1006.14
2019-03-25T07:34:33.831Z,1006.24
2019-03-25T07:35:33.835Z,1006.31
2019-03-25T07:36:33.834Z,1006.11
2019-03-25T07:37:33.804Z,1006.19
2019-03-25T07:38:33.808Z,1006.05
2019-03-25T07:39:33.786Z,1006.34
2019-03-25T07:40:33.784Z,1006.25
2019-03-25T07:41:33.757Z,1006.29
2019-03-25T07:42:33.749Z,1006.25
2019-03-25T07:43:33.740Z,1006.31
2019-03-25T07:44:33.717Z,1006.26
2019-03-25T07:45:33.754Z,1006.30
2019-03-25T07:46:33.761Z,1006.18
2019-03-25T07:47:33.825Z,1006.31
2019-03-25T07:48:33.696Z,1006.35
2019-03-25T07:49:33.766Z,1006.46
2019-03-25T07:50:33.708Z,1006.25
2019-03-25T07:51:33.655Z,1006.28
2019-03-25T07:52:33.725Z,1006.33
2019-03-25T07:53:34.369Z,1006.20
2019-03-25T07:54:33.613Z,1006.35
2019-03-25T07:55:33.633Z,1006.47
2019-03-25T07:56:33.603Z,1006.32
2019-03-25T07:57:33.583Z,1006.61
2019-03-25T07:58:33.569Z,1006.48
2019-03-25T07:59:33.593Z,1006.45
2019-03-25T08:00:33.612Z,1006.33
2019-03-25T08:01:33.571Z,1006.33
2019-03-25T08:02:33.618Z,1006.32
2019-03-25T08:03:33.543Z,1006.02
2019-03-25T08:04:33.523Z,1005.88
2019-03-25T08:05:33.606Z,1005.84
2019-03-25T08:06:33.667Z,1005.94
2019-03-25T08:07:33.620Z,1005.85
2019-03-25T08:08:33.492Z,1005.93
2019-03-25T08:09:33.477Z,1005.91
2019-03-25T08:10:33.554Z,1005.93
2019-03-25T08:11:33.551Z,1005.97
2019-03-25T08:12:34.368Z,1006.01
2019-03-25T08:13:33.427Z,1006.02
2019-03-25T08:14:33.421Z,1006.04
2019-03-25T08:15:33.398Z,1006.14
2019-03-25T08:16:33.463Z,1006.15
2019-03-25T08:17:33.437Z,1006.03
2019-03-25T08:18:33.405Z,1006.04
2019-03-25T08:19:33.546Z,1006.04
2019-03-25T08:20:33.349Z,1006.05
2019-03-25T08:21:33.348Z,1006.07
2019-03-25T08:22:33.335Z,1005.97
2019-03-25T08:23:33.360Z,1006.10
2019-03-25T08:24:33.390Z,1006.08
2019-03-25T08:25:33.277Z,1006.06
2019-03-25T08:26:33.299Z,1006.05
2019-03-25T08:27:33.262Z,1006.13
2019-03-25T08:28:33.248Z,1006.13
2019-03-25T08:29:33.262Z,1006.16
2019-03-25T08:30:33.237Z,1006.25
2019-03-25T08:31:33.216Z,1006.22
2019-03-25T08:32:33.200Z,1006.24
2019-03-25T08:33:33.205Z,1006.13
2019-03-25T08:34:33.178Z,1006.22
2019-03-25T08:35:33.212Z,1006.22
2019-03-25T08:36:33.167Z,1006.20
2019-03-25T08:37:33.202Z,1006.19
2019-03-25T08:38:33.180Z,1006.22
2019-03-25T08:39:33.140Z,1006.23
2019-03-25T08:40:33.119Z,1006.27
2019-03-25T08:41:33.097Z,1006.30
2019-03-25T08:42:33.089Z,1006.16
2019-03-25T08:43:33.080Z,1006.18
2019-03-25T08:44:33.090Z,1006.26
2019-03-25T08:45:33.120Z,1006.23
2019-03-25T08:46:33.045Z,1006.26
2019-03-25T08:47:33.060Z,1006.36
2019-03-25T08:48:33.028Z,1006.32
2019-03-25T08:49:33.036Z,1006.36
2019-03-25T08:50:33.002Z,1006.38
2019-03-25T08:51:32.992Z,1006.24
2019-03-25T08:52:32.980Z,1006.31
2019-03-25T08:53:32.979Z,1006.34
2019-03-25T08:54:32.966Z,1006.38
2019-03-25T08:55:32.963Z,1006.48
2019-03-25T08:56:32.952Z,1006.33
2019-03-25T08:57:32.933Z,1006.36
2019-03-25T08:58:32.947Z,1006.36
2019-03-25T08:59:32.952Z,1006.34
2019-03-25T09:00:32.891Z,1006.42
2019-03-25T09:01:32.902Z,1006.34
2019-03-25T09:02:32.873Z,1006.36
2019-03-25T09:03:32.868Z,1006.30
2019-03-25T09:04:32.905Z,1006.28
2019-03-25T09:05:32.849Z,1006.31
2019-03-25T09:06:32.825Z,1006.27
2019-03-25T09:07:32.817Z,1006.27
2019-03-25T09:08:32.802Z,1006.43
2019-03-25T09:09:32.854Z,1006.45
2019-03-25T09:10:32.801Z,1006.29
2019-03-25T09:11:32.773Z,1006.31
2019-03-25T09:12:32.771Z,1006.33
2019-03-25T09:13:32.747Z,1006.17
2019-03-25T09:14:32.733Z,1006.25
2019-03-25T09:15:32.784Z,1006.30
2019-03-25T09:16:32.741Z,1006.37
2019-03-25T09:17:32.753Z,1006.44
2019-03-25T09:18:32.690Z,1006.29
2019-03-25T09:19:32.678Z,1006.25
2019-03-25T09:20:32.680Z,1006.32
2019-03-25T09:21:32.677Z,1006.28
2019-03-25T09:22:32.682Z,1006.41
2019-03-25T09:23:32.644Z,1006.21
2019-03-25T09:24:33.099Z,1006.29
2019-03-25T09:25:32.622Z,1006.34
2019-03-25T09:26:32.618Z,1006.37
2019-03-25T09:27:32.591Z,1006.28
2019-03-25T09:28:32.610Z,1006.20
2019-03-25T09:29:32.577Z,1006.14
2019-03-25T09:30:32.581Z,1006.18
2019-03-25T09:31:36.919Z,1006.18
2019-03-25T09:32:32.542Z,1006.18
2019-03-25T09:33:32.561Z,1006.21
2019-03-25T09:34:32.586Z,1006.27
2019-03-25T09:35:32.513Z,1006.24
2019-03-25T09:36:32.518Z,1006.30
2019-03-25T09:37:32.491Z,1006.20
2019-03-25T09:38:32.482Z,1006.18
2019-03-25T09:39:32.465Z,1006.23
2019-03-25T09:40:32.528Z,1006.19
2019-03-25T09:41:32.449Z,1006.25
2019-03-25T09:42:32.451Z,1006.34
2019-03-25T09:43:32.432Z,1006.28
2019-03-25T09:44:32.419Z,1006.32
2019-03-25T09:45:32.408Z,1006.23
2019-03-25T09:46:32.398Z,1006.28
2019-03-25T09:47:32.408Z,1006.30
2019-03-25T09:48:32.370Z,1006.30
2019-03-25T09:49:32.369Z,1006.42
2019-03-25T09:50:32.343Z,1006.37
2019-03-25T09:51:32.370Z,1006.27
2019-03-25T09:52:38.476Z,1006.33
2019-03-25T09:53:33.359Z,1006.25
2019-03-25T09:54:32.307Z,1006.19
2019-03-25T09:55:32.300Z,1006.22
2019-03-25T09:56:32.297Z,1006.23
2019-03-25T09:57:32.296Z,1006.21
2019-03-25T09:58:36.595Z,1006.17
2019-03-25T09:59:32.246Z,1006.23
2019-03-25T10:00:32.337Z,1006.24
2019-03-25T10:01:32.259Z,1006.18
2019-03-25T10:02:32.222Z,1006.10
2019-03-25T10:03:32.229Z,1006.11
2019-03-25T10:04:32.199Z,1006.13
2019-03-25T10:05:32.188Z,1006.23
2019-03-25T10:06:32.220Z,1006.11
2019-03-25T10:07:32.171Z,1006.10
2019-03-25T10:08:32.172Z,1006.08
2019-03-25T10:09:32.137Z,1006.12
2019-03-25T10:10:32.124Z,1005.99
2019-03-25T10:11:32.120Z,1006.25
2019-03-25T10:12:32.212Z,1006.20
2019-03-25T10:13:32.100Z,1006.18
2019-03-25T10:14:32.085Z,1006.17
2019-03-25T10:15:32.076Z,1006.28
2019-03-25T10:16:32.079Z,1006.29
2019-03-25T10:17:32.061Z,1006.31
2019-03-25T10:18:32.057Z,1006.28
2019-03-25T10:19:32.033Z,1006.21
2019-03-25T10:20:32.023Z,1006.14
2019-03-25T10:21:32.023Z,1006.23
2019-03-25T10:22:31.998Z,1006.24
2019-03-25T10:23:31.980Z,1006.17
2019-03-25T10:24:31.976Z,1006.16
2019-03-25T10:25:32.039Z,1006.23
2019-03-25T10:26:31.971Z,1006.19
2019-03-25T10:27:31.969Z,1006.30
2019-03-25T10:28:31.932Z,1006.30
2019-03-25T10:29:31.921Z,1006.35
2019-03-25T10:30:31.924Z,1006.20
2019-03-25T10:31:31.973Z,1006.20
2019-03-25T10:32:31.889Z,1006.31
2019-03-25T10:33:31.889Z,1006.37
2019-03-25T10:34:31.875Z,1006.30
2019-03-25T10:35:31.861Z,1006.45
2019-03-25T10:36:31.872Z,1006.53
2019-03-25T10:37:31.912Z,1006.38
2019-03-25T10:38:31.827Z,1006.34
2019-03-25T10:39:31.857Z,1006.29
2019-03-25T10:40:31.806Z,1006.22
2019-03-25T10:41:31.822Z,1006.29
2019-03-25T10:42:31.771Z,1006.15
2019-03-25T10:43:31.766Z,1006.24
2019-03-25T10:44:31.863Z,1006.24
2019-03-25T10:45:31.743Z,1006.08
2019-03-25T10:46:31.738Z,1006.11
2019-03-25T10:47:31.745Z,1006.30
2019-03-25T10:48:31.737Z,1006.23
2019-03-25T10:49:31.744Z,1006.24
2019-03-25T10:50:31.778Z,1006.13
2019-03-25T10:51:31.684Z,1006.29
2019-03-25T10:52:31.669Z,1006.24
2019-03-25T10:53:31.661Z,1006.29
2019-03-25T10:54:31.748Z,1006.28
2019-03-25T10:55:31.655Z,1006.27
2019-03-25T10:56:31.742Z,1006.30
2019-03-25T10:57:31.616Z,1006.24
2019-03-25T10:58:31.615Z,1006.15
2019-03-25T10:59:31.642Z,1006.42
2019-03-25T11:00:31.579Z,1006.48
2019-03-25T11:01:31.583Z,1006.71
2019-03-25T11:02:31.605Z,1006.65
2019-03-25T11:03:31.541Z,1006.59
2019-03-25T11:04:31.542Z,1006.58
2019-03-25T11:05:31.523Z,1006.69
2019-03-25T11:06:31.528Z,1006.65
2019-03-25T11:07:31.629Z,1006.62
2019-03-25T11:08:31.536Z,1006.67
2019-03-25T11:09:31.511Z,1006.62
2019-03-25T11:10:31.479Z,1006.67
2019-03-25T11:11:31.481Z,1006.57
2019-03-25T11:12:31.461Z,1006.64
2019-03-25T11:13:31.440Z,1006.58
2019-03-25T11:14:31.468Z,1006.61
2019-03-25T11:15:31.413Z,1006.57
2019-03-25T11:16:31.422Z,1006.61
2019-03-25T11:17:31.398Z,1006.59
2019-03-25T11:18:31.443Z,1006.66
2019-03-25T11:19:31.380Z,1006.63
2019-03-25T11:20:31.364Z,1006.58
2019-03-25T11:21:31.453Z,1006.71
2019-03-25T11:22:31.340Z,1006.79
2019-03-25T11:23:31.341Z,1006.83
2019-03-25T11:24:31.322Z,1006.89
2019-03-25T11:25:31.329Z,1007.02
2019-03-25T11:26:31.287Z,1006.91
2019-03-25T11:27:31.322Z,1006.95
2019-03-25T11:28:31.269Z,1006.89
2019-03-25T11:29:31.303Z,1006.93
2019-03-25T11:30:31.253Z,1006.90
2019-03-25T11:31:31.261Z,1007.01
2019-03-25T11:32:31.242Z,1006.91
2019-03-25T11:33:31.228Z,1006.85
2019-03-25T11:34:31.219Z,1006.98
2019-03-25T11:35:31.270Z,1006.91
2019-03-25T11:36:31.193Z,1006.91
2019-03-25T11:37:31.175Z,1006.89
2019-03-25T11:38:31.168Z,1006.81
2019-03-25T11:39:31.145Z,1006.89
2019-03-25T11:40:31.145Z,1006.84
2019-03-25T11:41:31.144Z,1006.89
2019-03-25T11:42:31.234Z,1006.96
2019-03-25T11:43:31.111Z,1006.86
2019-03-25T11:44:31.104Z,1006.82
2019-03-25T11:45:31.082Z,1006.89
2019-03-25T11:46:31.083Z,1006.87
2019-03-25T11:47:31.059Z,1006.83
2019-03-25T11:48:31.129Z,1006.89
2019-03-25T11:49:31.067Z,1006.83
2019-03-25T11:50:31.035Z,1006.85
2019-03-25T11:51:31.022Z,1006.81
2019-03-25T11:52:31.009Z,1006.90
2019-03-25T11:53:30.997Z,1006.83
2019-03-25T11:54:31.003Z,1006.88
2019-03-25T11:55:30.997Z,1006.70
2019-03-25T11:56:30.966Z,1006.83
2019-03-25T11:57:30.952Z,1006.84
2019-03-25T11:58:30.938Z,1006.84
2019-03-25T11:59:30.930Z,1006.77
2019-03-25T12:00:31.000Z,1006.90
2019-03-25T12:01:30.913Z,1006.89
2019-03-25T12:02:30.907Z,1006.87
2019-03-25T12:03:30.891Z,1006.75
2019-03-25T12:04:30.883Z,1006.82
2019-03-25T12:05:30.930Z,1006.86